Time;durP1;ratioP1;P1;durP2;ratioP2;P2;SDS_P1;SDS_P2;PMS_P1;PMS_P2;Temp;Humidity;BMP_temperature;BMP_pressure;BME280_temperature;BME280_humidity;BME280_pressure;Samples;Min_cycle;Max_cycle;Signal;HPM_P1;HPM_P2
2022/02/04 00:24:58;;;;;;;;;;;-4.30;99.90;;;;;;4156696;28;20407;-54
2022/02/04 00:27:07;;;;;;;;;;;-4.30;99.90;;;;;;4157823;28;19947;-58
2022/02/04 00:31:43;;;;;;;;;;;-4.20;99.90;;;;;;4148875;28;19971;-56
2022/02/04 00:33:47;;;;;;;;;;;-4.20;99.90;;;;;;4156418;28;19967;-57
2022/02/04 00:35:56;;;;;;;;;;;-4.20;99.90;;;;;;4156939;28;19971;-53
2022/02/04 00:38:09;;;;;;;;;;;-4.10;99.90;;;;;;4155993;28;19917;-52
2022/02/04 00:40:16;;;;;;;;;;;-4.10;99.90;;;;;;4158114;28;19917;-51
2022/02/04 00:42:17;;;;;;;;;;;-4.10;99.90;;;;;;4156383;28;19929;-48
2022/02/04 00:44:23;;;;;;;;;;;-4.00;99.90;;;;;;4157667;28;19917;-50
2022/02/04 00:48:39;;;;;;;;;;;-4.00;99.90;;;;;;4157903;28;19917;-53
2022/02/04 00:50:56;;;;;;;;;;;-4.00;99.90;;;;;;4155847;28;19913;-49
2022/02/04 00:53:07;;;;;;;;;;;-4.10;99.90;;;;;;4157816;28;19967;-56
2022/02/04 01:13:13;;;;;;;;;;;-4.30;99.90;;;;;;4175075;28;20415;-54
2022/02/04 01:27:44;;;;;;;;;;;-4.70;99.90;;;;;;4158546;28;19971;-50
2022/02/04 01:29:59;;;;;;;;;;;-4.70;99.90;;;;;;4155929;28;19913;-56
2022/02/04 01:32:00;;;;;;;;;;;-4.80;99.90;;;;;;4157383;28;19963;-57
2022/02/04 01:34:01;;;;;;;;;;;-4.70;99.90;;;;;;4155937;28;20035;-52
2022/02/04 01:36:03;;;;;;;;;;;-4.70;99.90;;;;;;4164541;28;19962;-49
2022/02/04 01:38:04;;;;;;;;;;;-4.70;99.90;;;;;;4172307;28;19909;-53
2022/02/04 01:40:05;;;;;;;;;;;-4.70;99.90;;;;;;4173522;28;19917;-50
2022/02/04 01:42:07;;;;;;;;;;;-4.80;99.90;;;;;;4156557;28;20767;-59
2022/02/04 01:44:27;;;;;;;;;;;-4.80;99.90;;;;;;4157483;28;19979;-54
2022/02/04 01:46:28;;;;;;;;;;;-4.80;99.90;;;;;;4156789;28;19916;-54
2022/02/04 01:48:31;;;;;;;;;;;-4.80;99.90;;;;;;4156446;28;19917;-53
2022/02/04 01:50:32;;;;;;;;;;;-4.70;99.90;;;;;;4165322;28;19917;-50
2022/02/04 01:52:33;;;;;;;;;;;-4.70;99.90;;;;;;4172806;28;19916;-50
2022/02/04 01:54:34;;;;;;;;;;;-4.70;99.90;;;;;;4151874;28;19995;-49
2022/02/04 01:56:35;;;;;;;;;;;-4.60;99.90;;;;;;4171680;28;19917;-48
2022/02/04 01:58:36;;;;;;;;;;;-4.60;99.90;;;;;;4173833;28;19913;-55
2022/02/04 02:00:38;;;;;;;;;;;-4.60;99.90;;;;;;4167164;28;20447;-56
2022/02/04 02:02:39;;;;;;;;;;;-4.60;99.90;;;;;;4157065;28;20699;-56
2022/02/04 02:04:40;;;;;;;;;;;-4.60;99.90;;;;;;4162269;28;19928;-51
2022/02/04 02:06:53;;;;;;;;;;;-4.50;99.90;;;;;;4166657;28;20626;-58
2022/02/04 02:08:54;;;;;;;;;;;-4.60;99.90;;;;;;4156489;28;19917;-53
2022/02/04 02:10:55;;;;;;;;;;;-4.60;99.90;;;;;;4157301;28;19925;-56
2022/02/04 02:36:20;;;;;;;;;;;-4.90;99.90;;;;;;4159006;28;19921;-51
2022/02/04 02:58:49;;;;;;;;;;;-5.20;99.90;;;;;;4143798;28;19917;-58
2022/02/04 03:01:03;;;;;;;;;;;-5.30;99.90;;;;;;4157957;28;19913;-51
2022/02/04 03:03:08;;;;;;;;;;;-5.30;99.90;;;;;;4159314;28;19913;-51
2022/02/04 03:05:09;;;;;;;;;;;-5.40;99.90;;;;;;4158079;28;20466;-48
2022/02/04 03:07:10;;;;;;;;;;;-5.50;99.90;;;;;;4159808;28;19913;-53
2022/02/04 03:09:12;;;;;;;;;;;-5.50;99.90;;;;;;4157808;28;19913;-56
2022/02/04 03:11:13;;;;;;;;;;;-5.60;99.90;;;;;;4161027;28;20373;-54
2022/02/04 03:13:14;;;;;;;;;;;-5.60;99.90;;;;;;4157659;28;19974;-52
2022/02/04 03:15:15;;;;;;;;;;;-5.60;99.90;;;;;;4159591;28;19913;-53
2022/02/04 03:17:16;;;;;;;;;;;-5.70;99.90;;;;;;4157296;28;19925;-54
2022/02/04 03:19:18;;;;;;;;;;;-5.70;99.90;;;;;;4159591;28;19917;-53
2022/02/04 03:21:25;;;;;;;;;;;-5.70;99.90;;;;;;4166899;28;19987;-53
2022/02/04 03:23:29;;;;;;;;;;;-5.70;99.90;;;;;;4174554;28;20479;-53
2022/02/04 03:25:37;;;;;;;;;;;-5.70;99.90;;;;;;4171024;28;19913;-54
2022/02/04 03:27:47;;;;;;;;;;;-5.80;99.90;;;;;;4174460;28;19931;-53
2022/02/04 03:31:56;;;;;;;;;;;-5.80;99.90;;;;;;4174600;28;19913;-52
2022/02/04 03:33:57;;;;;;;;;;;-5.80;99.90;;;;;;4173916;28;19963;-50
2022/02/04 03:35:58;;;;;;;;;;;-5.80;99.90;;;;;;4171644;28;19966;-52
2022/02/04 03:37:59;;;;;;;;;;;-5.80;99.90;;;;;;4173957;28;20331;-58
2022/02/04 03:40:00;;;;;;;;;;;-5.80;99.90;;;;;;4171475;28;19956;-48
2022/02/04 03:42:01;;;;;;;;;;;-5.80;99.90;;;;;;4174773;28;19925;-59
2022/02/04 03:44:02;;;;;;;;;;;-5.80;99.90;;;;;;4171843;28;20004;-50
2022/02/04 03:46:05;;;;;;;;;;;-5.80;99.90;;;;;;4173637;28;19993;-50
2022/02/04 03:48:06;;;;;;;;;;;-5.70;99.90;;;;;;4173721;28;19932;-51
2022/02/04 03:50:07;;;;;;;;;;;-5.80;99.90;;;;;;4173889;28;19982;-51
2022/02/04 03:52:08;;;;;;;;;;;-5.80;99.90;;;;;;4162348;28;19921;-50
2022/02/04 03:54:09;;;;;;;;;;;-5.90;99.90;;;;;;4158203;28;19913;-51
2022/02/04 03:56:11;;;;;;;;;;;-5.90;99.90;;;;;;4158266;28;19917;-55
2022/02/04 03:58:12;;;;;;;;;;;-5.90;99.90;;;;;;4158729;28;19952;-52
2022/02/04 04:00:14;;;;;;;;;;;-6.00;99.90;;;;;;4157982;28;19917;-51
2022/02/04 04:02:15;;;;;;;;;;;-6.10;99.90;;;;;;4156677;28;19925;-56
2022/02/04 04:04:16;;;;;;;;;;;-6.10;99.90;;;;;;4171250;28;19916;-51
2022/02/04 04:06:18;;;;;;;;;;;-6.20;99.90;;;;;;4172990;28;19913;-56
2022/02/04 04:08:19;;;;;;;;;;;-6.20;99.90;;;;;;4174169;28;19920;-53
2022/02/04 04:10:24;;;;;;;;;;;-6.20;99.90;;;;;;4172767;28;19909;-54
2022/02/04 04:12:25;;;;;;;;;;;-6.20;99.90;;;;;;4172931;28;19921;-50
2022/02/04 04:14:26;;;;;;;;;;;-6.20;99.90;;;;;;4173627;28;20288;-52
2022/02/04 04:16:27;;;;;;;;;;;-6.20;99.90;;;;;;4174684;28;19909;-49
2022/02/04 04:18:28;;;;;;;;;;;-6.30;99.90;;;;;;4172101;28;20732;-58
2022/02/04 04:20:29;;;;;;;;;;;-6.30;99.90;;;;;;4173374;28;19960;-53
2022/02/04 04:22:30;;;;;;;;;;;-6.30;99.90;;;;;;4159528;28;19955;-53
2022/02/04 04:24:31;;;;;;;;;;;-6.30;99.90;;;;;;4159328;28;19917;-50
2022/02/04 04:26:32;;;;;;;;;;;-6.30;99.90;;;;;;4160468;28;19943;-49
2022/02/04 04:28:33;;;;;;;;;;;-6.40;99.90;;;;;;4168740;28;19916;-53
2022/02/04 04:30:34;;;;;;;;;;;-6.40;99.90;;;;;;4173246;28;19916;-51
2022/02/04 04:32:35;;;;;;;;;;;-6.50;99.90;;;;;;4173184;28;19917;-51
2022/02/04 04:34:36;;;;;;;;;;;-6.50;99.90;;;;;;4173853;28;19958;-53
2022/02/04 04:36:37;;;;;;;;;;;-6.50;99.90;;;;;;4172473;28;19920;-55
2022/02/04 05:29:35;;;;;;;;;;;-6.90;99.90;;;;;;4172166;28;19920;-53
2022/02/04 05:31:36;;;;;;;;;;;-6.80;99.90;;;;;;4171538;28;19966;-60
2022/02/04 05:33:37;;;;;;;;;;;-6.80;99.90;;;;;;4173351;28;19967;-60
2022/02/04 05:35:38;;;;;;;;;;;-6.80;99.90;;;;;;4172263;28;19913;-51
2022/02/04 05:37:44;;;;;;;;;;;-6.80;99.90;;;;;;4172914;28;20672;-59
2022/02/04 05:39:56;;;;;;;;;;;-6.80;99.90;;;;;;4169767;28;20399;-52
2022/02/04 05:41:56;;;;;;;;;;;-6.80;99.90;;;;;;4165183;28;20381;-53
2022/02/04 05:44:01;;;;;;;;;;;-6.80;99.90;;;;;;4172238;28;19936;-51
2022/02/04 05:48:06;;;;;;;;;;;-6.90;99.90;;;;;;4157648;28;19921;-56
2022/02/04 05:50:15;;;;;;;;;;;-6.90;99.90;;;;;;4154295;28;20445;-55
2022/02/04 05:52:23;;;;;;;;;;;-7.00;99.90;;;;;;4156737;28;19913;-50
2022/02/04 05:54:43;;;;;;;;;;;-7.00;99.90;;;;;;4155242;28;19913;-49
2022/02/04 06:01:13;;;;;;;;;;;-7.00;99.90;;;;;;4176379;28;19913;-56
2022/02/04 06:05:51;;;;;;;;;;;-6.70;99.90;;;;;;4160368;28;20024;-56
2022/02/04 06:23:25;;;;;;;;;;;-6.30;99.90;;;;;;4143128;28;20335;-51
2022/02/04 06:25:26;;;;;;;;;;;-6.20;99.90;;;;;;4155338;28;19921;-60
2022/02/04 06:27:28;;;;;;;;;;;-5.90;99.90;;;;;;4142338;28;19983;-49
2022/02/04 06:29:29;;;;;;;;;;;-5.40;99.90;;;;;;4155142;28;19913;-61
2022/02/04 06:31:30;;;;;;;;;;;-5.00;99.90;;;;;;4154628;28;20368;-53
2022/02/04 06:33:31;;;;;;;;;;;-4.40;99.90;;;;;;4154229;28;20021;-49
2022/02/04 06:35:34;;;;;;;;;;;-4.10;99.90;;;;;;4155361;28;19913;-49
2022/02/04 06:37:35;;;;;;;;;;;-3.80;99.90;;;;;;4153574;28;19948;-52
2022/02/04 06:39:36;;;;;;;;;;;-3.60;99.90;;;;;;4158346;28;20775;-60
2022/02/04 06:41:37;;;;;;;;;;;-3.30;99.90;;;;;;4157628;28;19917;-53
2022/02/04 06:43:38;;;;;;;;;;;-3.00;99.90;;;;;;4157659;28;20536;-51
2022/02/04 06:45:40;;;;;;;;;;;-2.70;99.90;;;;;;4156155;28;19959;-55
2022/02/04 06:47:43;;;;;;;;;;;-2.50;99.90;;;;;;4154761;28;19913;-53
2022/02/04 06:49:45;;;;;;;;;;;-2.20;99.90;;;;;;4157173;28;19998;-52
2022/02/04 06:51:45;;;;;;;;;;;-2.10;99.90;;;;;;4171497;28;19925;-54
2022/02/04 06:53:47;;;;;;;;;;;-2.00;99.90;;;;;;4165384;28;20774;-50
2022/02/04 06:55:48;;;;;;;;;;;-1.70;99.90;;;;;;4155227;28;19924;-57
2022/02/04 06:57:49;;;;;;;;;;;-1.50;99.90;;;;;;4170324;28;20381;-59
2022/02/04 06:59:52;;;;;;;;;;;-1.40;99.90;;;;;;4173331;28;19921;-52
2022/02/04 07:01:54;;;;;;;;;;;-1.30;99.90;;;;;;4173444;28;19909;-56
2022/02/04 07:03:55;;;;;;;;;;;-1.30;99.90;;;;;;4158726;28;19974;-57
2022/02/04 07:05:57;;;;;;;;;;;-1.40;99.90;;;;;;4165479;28;19912;-58
2022/02/04 07:08:06;;;;;;;;;;;-1.40;99.90;;;;;;4154145;28;19922;-56
2022/02/04 07:10:16;;;;;;;;;;;-1.30;99.90;;;;;;4164319;28;20304;-58
2022/02/04 07:15:25;;;;;;;;;;;-0.80;99.90;;;;;;4158205;28;19948;-60
2022/02/04 07:17:10;;;;;;;;;;;-0.60;99.90;;;;;;4148504;28;20044;-61
2022/02/04 07:21:30;;;;;;;;;;;-0.50;99.90;;;;;;4158600;28;19995;-57
2022/02/04 07:23:31;;;;;;;;;;;-0.50;99.90;;;;;;4162325;28;19925;-58
2022/02/04 07:25:32;;;;;;;;;;;-0.40;99.90;;;;;;4160415;28;19962;-57
2022/02/04 07:27:34;;;;;;;;;;;-0.30;99.90;;;;;;4159467;28;19941;-55
2022/02/04 07:29:36;;;;;;;;;;;-0.30;99.90;;;;;;4161998;28;19913;-57
2022/02/04 07:31:40;;;;;;;;;;;-0.30;99.90;;;;;;4175127;28;19916;-56
2022/02/04 07:33:48;;;;;;;;;;;-0.70;99.90;;;;;;4172986;28;19913;-57
2022/02/04 07:42:41;;;;;;;;;;;-1.10;99.90;;;;;;4166125;28;20019;-56
2022/02/04 07:44:42;;;;;;;;;;;-1.20;99.90;;;;;;4174276;28;20407;-59
2022/02/04 07:46:43;;;;;;;;;;;-1.10;99.90;;;;;;4164334;28;19921;-56
2022/02/04 07:48:44;;;;;;;;;;;-1.40;99.90;;;;;;4158231;28;20357;-53
2022/02/04 07:50:47;;;;;;;;;;;-1.40;99.90;;;;;;4161542;28;19958;-57
2022/02/04 07:52:49;;;;;;;;;;;-1.40;99.90;;;;;;4172685;28;19913;-49
2022/02/04 07:54:49;;;;;;;;;;;-1.70;99.90;;;;;;4156537;28;19970;-55
2022/02/04 07:56:50;;;;;;;;;;;-1.80;99.90;;;;;;4157558;28;19987;-59
2022/02/04 07:58:56;;;;;;;;;;;-1.80;99.90;;;;;;4157530;28;19971;-53
2022/02/04 08:00:59;;;;;;;;;;;-1.70;99.90;;;;;;4157544;28;19968;-50
2022/02/04 08:03:06;;;;;;;;;;;-1.50;99.90;;;;;;4147956;28;19921;-56
2022/02/04 08:05:09;;;;;;;;;;;-1.50;99.90;;;;;;4163602;28;19925;-58
2022/02/04 08:07:14;;;;;;;;;;;-1.50;99.90;;;;;;4138457;28;19913;-58
2022/02/04 08:09:36;;;;;;;;;;;-1.30;99.90;;;;;;4158024;28;19932;-58
2022/02/04 08:22:54;;;;;;;;;;;-1.00;99.90;;;;;;4158012;28;20431;-60
2022/02/04 08:38:32;;;;;;;;;;;-1.00;99.90;;;;;;4156659;28;19917;-51
2022/02/04 08:56:20;;;;;;;;;;;-0.70;99.90;;;;;;4159012;28;19913;-52
2022/02/04 09:01:02;;;;;;;;;;;-0.50;99.90;;;;;;4147704;28;19975;-54
2022/02/04 09:03:14;;;;;;;;;;;-0.50;99.90;;;;;;4163246;28;19978;-56
2022/02/04 09:05:16;;;;;;;;;;;-0.30;99.90;;;;;;4156634;28;19966;-56
2022/02/04 09:07:20;;;;;;;;;;;-0.50;99.90;;;;;;4156319;28;19913;-52
2022/02/04 09:09:58;;;;;;;;;;;-0.60;99.90;;;;;;4156246;28;19913;-53
2022/02/04 09:11:53;;;;;;;;;;;-0.60;99.90;;;;;;4156081;28;19909;-54
2022/02/04 09:18:42;;;;;;;;;;;-1.00;99.90;;;;;;4156178;28;20043;-57
2022/02/04 09:22:56;;;;;;;;;;;-1.00;99.90;;;;;;4155725;28;19975;-56
2022/02/04 09:24:58;;;;;;;;;;;-0.90;99.90;;;;;;4153768;28;19913;-56
2022/02/04 09:26:58;;;;;;;;;;;-0.80;99.90;;;;;;4159880;28;19979;-54
2022/02/04 09:28:59;;;;;;;;;;;-0.80;99.90;;;;;;4155497;28;19913;-53
2022/02/04 09:31:00;;;;;;;;;;;-0.80;99.90;;;;;;4162427;28;19912;-53
2022/02/04 09:33:01;;;;;;;;;;;-0.90;99.90;;;;;;4161673;28;20073;-54
2022/02/04 09:35:04;;;;;;;;;;;-0.80;99.90;;;;;;4164193;28;19917;-55
2022/02/04 09:37:05;;;;;;;;;;;-0.80;99.90;;;;;;4155864;28;19917;-52
2022/02/04 09:39:06;;;;;;;;;;;-0.80;99.90;;;;;;4154334;28;20763;-55
2022/02/04 09:41:07;;;;;;;;;;;-0.70;99.90;;;;;;4157427;28;19921;-58
2022/02/04 09:43:09;;;;;;;;;;;-0.70;99.90;;;;;;4154184;28;20392;-53
2022/02/04 09:45:14;;;;;;;;;;;-0.50;99.90;;;;;;4156959;28;20412;-53
2022/02/04 09:47:18;;;;;;;;;;;-0.40;99.90;;;;;;4154866;28;19955;-55
2022/02/04 09:49:26;;;;;;;;;;;-0.30;99.90;;;;;;4165099;28;19968;-51
2022/02/04 09:51:38;;;;;;;;;;;-0.20;99.90;;;;;;4154395;28;19963;-50
2022/02/04 10:08:15;;;;;;;;;;;0.30;99.90;;;;;;4141539;28;19913;-58
2022/02/04 10:12:38;;;;;;;;;;;0.20;99.90;;;;;;4154563;28;19917;-63
2022/02/04 10:14:57;;;;;;;;;;;0.30;99.90;;;;;;4156201;28;19917;-52
2022/02/04 10:17:16;;;;;;;;;;;0.20;99.90;;;;;;4154531;28;19967;-55
2022/02/04 10:19:29;;;;;;;;;;;0.20;99.90;;;;;;4147657;28;19944;-55
2022/02/04 10:21:30;;;;;;;;;;;0.20;99.90;;;;;;4150737;28;20022;-52
2022/02/04 10:23:50;;;;;;;;;;;0.40;99.90;;;;;;4171976;28;20011;-58
2022/02/04 10:25:51;;;;;;;;;;;0.40;99.90;;;;;;4164750;28;19986;-56
2022/02/04 10:27:55;;;;;;;;;;;0.40;99.90;;;;;;4164061;28;19983;-51
2022/02/04 10:29:57;;;;;;;;;;;0.40;99.90;;;;;;4162485;28;19917;-55
2022/02/04 10:31:58;;;;;;;;;;;0.50;99.90;;;;;;4154923;28;19913;-52
2022/02/04 10:34:03;;;;;;;;;;;0.60;99.90;;;;;;4154525;28;19971;-54
2022/02/04 10:36:05;;;;;;;;;;;0.60;99.90;;;;;;4155646;28;20400;-57
2022/02/04 10:38:24;;;;;;;;;;;0.70;99.90;;;;;;4166460;28;19916;-53
2022/02/04 10:40:38;;;;;;;;;;;0.70;99.90;;;;;;4163275;28;19975;-51
2022/02/04 10:44:57;;;;;;;;;;;0.80;99.90;;;;;;4156427;28;19939;-51
2022/02/04 10:47:04;;;;;;;;;;;0.90;99.90;;;;;;4157031;28;19982;-55
2022/02/04 10:49:38;;;;;;;;;;;1.00;99.90;;;;;;4159136;28;20385;-52
2022/02/04 10:52:11;;;;;;;;;;;1.00;99.90;;;;;;4156301;28;19917;-49
2022/02/04 11:03:09;;;;;;;;;;;0.80;99.90;;;;;;4175591;28;21472;-52
2022/02/04 11:07:31;;;;;;;;;;;0.80;99.90;;;;;;4164239;28;19913;-54
2022/02/04 11:47:52;;;;;;;;;;;1.20;99.90;;;;;;4156432;28;19979;-60
2022/02/04 11:49:29;;;;;;;;;;;1.10;99.90;;;;;;4145144;28;19967;-53
2022/02/04 11:56:15;;;;;;;;;;;1.20;99.90;;;;;;4110126;28;19913;-54
2022/02/04 11:58:16;;;;;;;;;;;1.30;99.90;;;;;;4155638;28;19916;-59
2022/02/04 12:00:18;;;;;;;;;;;1.30;99.90;;;;;;4174087;28;20353;-58
2022/02/04 12:02:32;;;;;;;;;;;1.30;99.90;;;;;;4173534;28;19962;-59
2022/02/04 12:04:33;;;;;;;;;;;1.30;99.90;;;;;;4169383;28;19935;-56
2022/02/04 12:06:37;;;;;;;;;;;1.40;99.90;;;;;;4156728;28;20435;-55
2022/02/04 12:08:38;;;;;;;;;;;1.50;99.90;;;;;;4170514;28;19978;-55
2022/02/04 12:10:43;;;;;;;;;;;1.50;99.90;;;;;;4153857;28;19917;-55
2022/02/04 12:12:58;;;;;;;;;;;1.50;99.90;;;;;;4174712;28;19916;-58
2022/02/04 12:15:19;;;;;;;;;;;1.60;99.90;;;;;;4173199;28;19913;-55
2022/02/04 12:17:37;;;;;;;;;;;1.70;99.90;;;;;;4174036;28;19921;-56
2022/02/04 12:19:42;;;;;;;;;;;1.70;99.90;;;;;;4173416;28;19958;-59
2022/02/04 12:21:44;;;;;;;;;;;1.70;99.90;;;;;;4173908;28;19975;-57
2022/02/04 12:23:49;;;;;;;;;;;1.80;99.90;;;;;;4173299;28;19921;-61
2022/02/04 12:26:03;;;;;;;;;;;1.80;99.90;;;;;;4165166;28;20447;-58
2022/02/04 12:28:04;;;;;;;;;;;1.80;99.90;;;;;;4155792;28;19917;-56
2022/02/04 12:30:24;;;;;;;;;;;1.90;99.90;;;;;;4157629;28;19953;-55
2022/02/04 12:32:25;;;;;;;;;;;1.90;99.90;;;;;;4155935;28;19917;-57
2022/02/04 12:34:26;;;;;;;;;;;1.90;99.90;;;;;;4158292;28;19917;-58
2022/02/04 12:36:30;;;;;;;;;;;2.00;99.90;;;;;;4156127;28;19956;-60
2022/02/04 12:38:31;;;;;;;;;;;2.00;99.90;;;;;;4156879;28;19971;-58
2022/02/04 12:40:32;;;;;;;;;;;2.10;99.90;;;;;;4155509;28;20361;-56
2022/02/04 12:42:33;;;;;;;;;;;2.10;99.90;;;;;;4172269;28;20038;-58
2022/02/04 12:44:38;;;;;;;;;;;2.10;99.90;;;;;;4156020;28;19998;-53
2022/02/04 12:46:43;;;;;;;;;;;2.20;99.90;;;;;;4172209;28;20284;-58
2022/02/04 12:48:57;;;;;;;;;;;2.30;99.90;;;;;;4156952;28;19936;-54
2022/02/04 12:50:59;;;;;;;;;;;2.30;99.90;;;;;;4157674;28;19963;-55
2022/02/04 12:52:59;;;;;;;;;;;2.40;99.90;;;;;;4155581;28;19909;-61
2022/02/04 12:57:31;;;;;;;;;;;2.50;99.90;;;;;;4155141;28;20382;-53
2022/02/04 13:09:21;;;;;;;;;;;2.50;99.90;;;;;;4163492;28;19959;-56
2022/02/04 13:11:13;;;;;;;;;;;2.50;99.90;;;;;;4155719;28;19974;-53
2022/02/04 13:13:14;;;;;;;;;;;2.60;99.90;;;;;;4157085;28;19913;-55
2022/02/04 13:15:15;;;;;;;;;;;2.60;99.90;;;;;;4154931;28;19963;-58
2022/02/04 13:17:29;;;;;;;;;;;2.60;99.90;;;;;;4156347;28;19970;-58
2022/02/04 13:19:30;;;;;;;;;;;2.60;99.90;;;;;;4156179;28;19917;-63
2022/02/04 13:21:32;;;;;;;;;;;2.60;99.90;;;;;;4156641;28;19971;-59
2022/02/04 13:23:33;;;;;;;;;;;2.60;99.90;;;;;;4155577;28;19964;-58
2022/02/04 13:25:35;;;;;;;;;;;2.60;99.90;;;;;;4159890;28;19917;-57
2022/02/04 13:27:37;;;;;;;;;;;2.60;99.90;;;;;;4155322;28;19971;-57
2022/02/04 13:29:38;;;;;;;;;;;2.60;99.90;;;;;;4156696;28;19940;-56
2022/02/04 13:31:40;;;;;;;;;;;2.60;99.90;;;;;;4155023;28;19928;-59
2022/02/04 13:33:45;;;;;;;;;;;2.60;99.90;;;;;;4156081;28;19917;-59
2022/02/04 13:35:53;;;;;;;;;;;2.60;99.90;;;;;;4153691;28;19967;-61
2022/02/04 13:38:00;;;;;;;;;;;2.60;99.90;;;;;;4156566;28;20438;-57
2022/02/04 13:40:14;;;;;;;;;;;2.60;99.90;;;;;;4155418;28;19914;-55
2022/02/04 13:42:29;;;;;;;;;;;2.50;99.90;;;;;;4164242;28;19913;-56
2022/02/04 13:45:06;;;;;;;;;;;2.60;99.90;;;;;;4170356;28;20342;-58
2022/02/04 13:48:02;;;;;;;;;;;2.60;99.90;;;;;;4159974;28;19987;-58
2022/02/04 13:51:41;;;;;;;;;;;2.60;99.90;;;;;;4157408;28;19967;-57
2022/02/04 13:54:02;;;;;;;;;;;2.50;99.90;;;;;;4155605;28;19967;-57
2022/02/04 13:56:28;;;;;;;;;;;2.50;99.90;;;;;;4157532;28;19967;-58
2022/02/04 13:58:42;;;;;;;;;;;2.40;99.90;;;;;;4155419;28;20424;-59
2022/02/04 14:00:56;;;;;;;;;;;2.30;99.90;;;;;;4155707;28;19955;-55
2022/02/04 14:03:15;;;;;;;;;;;2.30;99.90;;;;;;4154251;28;19913;-56
2022/02/04 14:05:48;;;;;;;;;;;2.30;99.90;;;;;;4156253;28;19913;-56
2022/02/04 14:07:53;;;;;;;;;;;2.30;99.90;;;;;;4154327;28;19913;-59
2022/02/04 14:10:05;;;;;;;;;;;2.30;99.90;;;;;;4163579;28;19913;-57
2022/02/04 14:12:16;;;;;;;;;;;2.20;99.90;;;;;;4155562;28;20262;-59
2022/02/04 14:14:21;;;;;;;;;;;2.20;99.90;;;;;;4155835;28;19913;-60
2022/02/04 14:16:22;;;;;;;;;;;2.30;99.90;;;;;;4155015;28;19997;-59
2022/02/04 14:18:24;;;;;;;;;;;2.30;99.90;;;;;;4155832;28;19928;-56
2022/02/04 14:20:25;;;;;;;;;;;2.30;99.90;;;;;;4138590;28;19913;-56
2022/02/04 14:22:26;;;;;;;;;;;2.20;99.90;;;;;;4160128;28;20277;-59
2022/02/04 14:24:28;;;;;;;;;;;2.30;99.90;;;;;;4157414;28;20391;-54
2022/02/04 14:26:34;;;;;;;;;;;2.30;99.90;;;;;;4160121;28;19920;-55
2022/02/04 14:28:48;;;;;;;;;;;2.30;99.90;;;;;;4158915;28;20258;-56
2022/02/04 14:30:58;;;;;;;;;;;2.30;99.90;;;;;;4159811;28;19987;-51
2022/02/04 14:33:25;;;;;;;;;;;2.20;99.90;;;;;;4157716;28;19936;-55
2022/02/04 14:35:55;;;;;;;;;;;2.20;99.90;;;;;;4159974;28;19909;-57
2022/02/04 14:49:31;;;;;;;;;;;2.20;99.90;;;;;;4162670;28;20968;-59
2022/02/04 15:00:45;;;;;;;;;;;2.10;99.90;;;;;;4159982;28;20054;-60
2022/02/04 15:04:50;;;;;;;;;;;1.90;99.90;;;;;;4159283;28;19975;-58
2022/02/04 15:06:58;;;;;;;;;;;1.90;99.90;;;;;;4157448;28;19913;-59
2022/02/04 15:09:00;;;;;;;;;;;1.90;99.90;;;;;;4158636;28;19913;-59
2022/02/04 15:11:04;;;;;;;;;;;1.90;99.90;;;;;;4157637;28;19975;-59
2022/02/04 15:13:13;;;;;;;;;;;1.90;99.90;;;;;;4158825;28;20369;-60
2022/02/04 15:15:13;;;;;;;;;;;1.80;99.90;;;;;;4158254;28;19909;-59
2022/02/04 15:17:14;;;;;;;;;;;1.80;99.90;;;;;;4161162;28;19928;-59
2022/02/04 15:19:15;;;;;;;;;;;1.70;99.90;;;;;;4168249;28;19913;-57
2022/02/04 15:21:18;;;;;;;;;;;1.70;99.90;;;;;;4157073;28;20020;-60
2022/02/04 15:23:19;;;;;;;;;;;1.60;99.90;;;;;;4159578;28;20407;-60
2022/02/04 15:25:21;;;;;;;;;;;1.50;99.90;;;;;;4156993;28;20008;-59
2022/02/04 15:27:22;;;;;;;;;;;1.50;99.90;;;;;;4157303;28;20262;-58
2022/02/04 15:29:23;;;;;;;;;;;1.50;99.90;;;;;;4156322;28;19913;-56
2022/02/04 15:33:32;;;;;;;;;;;1.40;99.90;;;;;;4160119;28;19978;-56
2022/02/04 15:35:33;;;;;;;;;;;1.30;99.90;;;;;;4174732;28;19913;-58
2022/02/04 15:37:34;;;;;;;;;;;1.30;99.90;;;;;;4173458;28;19912;-55
2022/02/04 15:39:35;;;;;;;;;;;1.30;99.90;;;;;;4175375;28;20871;-56
2022/02/04 15:41:38;;;;;;;;;;;1.30;99.90;;;;;;4172829;28;19913;-56
2022/02/04 15:43:40;;;;;;;;;;;1.20;99.90;;;;;;4174182;28;19916;-60
2022/02/04 15:46:06;;;;;;;;;;;1.20;99.90;;;;;;4173389;28;19920;-61
2022/02/04 15:48:21;;;;;;;;;;;1.20;99.90;;;;;;4171575;28;19975;-58
2022/02/04 15:50:37;;;;;;;;;;;1.10;99.90;;;;;;4156501;28;20448;-66
2022/02/04 15:52:48;;;;;;;;;;;1.10;99.90;;;;;;4158469;28;19913;-56
2022/02/04 15:57:15;;;;;;;;;;;0.90;99.90;;;;;;4159458;28;20288;-58
2022/02/04 16:03:57;;;;;;;;;;;0.80;99.90;;;;;;4156404;28;19921;-58
2022/02/04 16:05:58;;;;;;;;;;;0.70;99.90;;;;;;4157819;28;19917;-61
2022/02/04 16:07:59;;;;;;;;;;;0.60;99.90;;;;;;4165606;28;20695;-60
2022/02/04 16:12:26;;;;;;;;;;;0.50;99.90;;;;;;4173212;28;19971;-64
2022/02/04 16:14:40;;;;;;;;;;;0.50;99.90;;;;;;4174412;28;19917;-59
2022/02/04 16:16:50;;;;;;;;;;;0.40;99.90;;;;;;4154405;28;19959;-54
2022/02/04 16:23:08;;;;;;;;;;;0.30;99.90;;;;;;4173875;28;19923;-56
2022/02/04 16:25:32;;;;;;;;;;;0.20;99.90;;;;;;4155149;28;19925;-58
2022/02/04 16:29:37;;;;;;;;;;;0.10;99.90;;;;;;4156990;28;19917;-60
2022/02/04 16:31:38;;;;;;;;;;;0.10;99.90;;;;;;4157034;28;19921;-60
2022/02/04 16:33:39;;;;;;;;;;;0.00;99.90;;;;;;4171220;28;19920;-62
2022/02/04 16:35:40;;;;;;;;;;;0.00;99.90;;;;;;4173963;28;19920;-62
2022/02/04 16:37:49;;;;;;;;;;;0.00;99.90;;;;;;4157154;28;19913;-57
2022/02/04 16:39:50;;;;;;;;;;;0.00;99.90;;;;;;4156177;28;19913;-59
2022/02/04 16:42:01;;;;;;;;;;;-0.10;99.90;;;;;;4171204;28;19962;-55
2022/02/04 16:44:04;;;;;;;;;;;-0.10;99.90;;;;;;4173574;28;19920;-58
2022/02/04 16:46:06;;;;;;;;;;;-0.10;99.90;;;;;;4173312;28;19912;-52
2022/02/04 16:48:07;;;;;;;;;;;-0.10;99.90;;;;;;4161971;28;19959;-54
2022/02/04 16:50:08;;;;;;;;;;;-0.20;99.90;;;;;;4156909;28;19913;-55
2022/02/04 16:52:10;;;;;;;;;;;-0.20;99.90;;;;;;4156879;28;19913;-59
2022/02/04 16:54:11;;;;;;;;;;;-0.30;99.90;;;;;;4156948;28;20940;-55
2022/02/04 16:56:12;;;;;;;;;;;-0.20;99.90;;;;;;4156130;28;19913;-54
2022/02/04 16:58:13;;;;;;;;;;;-0.30;99.90;;;;;;4169274;28;19916;-59
2022/02/04 17:00:25;;;;;;;;;;;-0.30;99.90;;;;;;4166798;28;19917;-56
2022/02/04 17:02:26;;;;;;;;;;;-0.30;99.90;;;;;;4157386;28;19916;-54
2022/02/04 17:04:27;;;;;;;;;;;-0.30;99.90;;;;;;4155784;28;19921;-56
2022/02/04 17:06:34;;;;;;;;;;;-0.40;99.90;;;;;;4157262;28;19971;-51
2022/02/04 17:08:45;;;;;;;;;;;-0.40;99.90;;;;;;4155659;28;19963;-52
2022/02/04 17:10:50;;;;;;;;;;;-0.40;99.90;;;;;;4157656;28;19971;-57
2022/02/04 17:12:58;;;;;;;;;;;-0.40;99.90;;;;;;4155594;28;19967;-55
2022/02/04 17:14:59;;;;;;;;;;;-0.40;99.90;;;;;;4173210;28;20371;-57
2022/02/04 17:17:00;;;;;;;;;;;-0.50;99.90;;;;;;4163560;28;19975;-52
2022/02/04 17:19:01;;;;;;;;;;;-0.50;99.90;;;;;;4157767;28;19913;-55
2022/02/04 17:21:03;;;;;;;;;;;-0.50;99.90;;;;;;4155870;28;19995;-55
2022/02/04 17:23:08;;;;;;;;;;;-0.50;99.90;;;;;;4156496;28;20369;-57
2022/02/04 17:25:11;;;;;;;;;;;-0.60;99.90;;;;;;4155869;28;19925;-57
2022/02/04 17:27:11;;;;;;;;;;;-0.60;99.90;;;;;;4156129;28;19967;-56
2022/02/04 17:29:12;;;;;;;;;;;-0.70;99.90;;;;;;4156512;28;20365;-56
2022/02/04 17:31:13;;;;;;;;;;;-0.60;99.90;;;;;;4156469;28;19967;-58
2022/02/04 17:33:14;;;;;;;;;;;-0.60;99.90;;;;;;4156274;28;20277;-56
2022/02/04 17:35:16;;;;;;;;;;;-0.60;99.90;;;;;;4156000;28;20330;-51
2022/02/04 17:37:17;;;;;;;;;;;-0.60;99.90;;;;;;4157603;28;19963;-56
2022/02/04 17:39:21;;;;;;;;;;;-0.60;99.90;;;;;;4155453;28;19913;-54
2022/02/04 17:41:22;;;;;;;;;;;-0.60;99.90;;;;;;4157089;28;20292;-57
2022/02/04 17:43:24;;;;;;;;;;;-0.70;99.90;;;;;;4156701;28;19914;-52
2022/02/04 17:45:25;;;;;;;;;;;-0.70;99.90;;;;;;4173971;28;19921;-56
2022/02/04 17:47:26;;;;;;;;;;;-0.70;99.90;;;;;;4165609;28;19913;-56
2022/02/04 17:49:36;;;;;;;;;;;-0.70;99.90;;;;;;4168121;28;20798;-55
2022/02/04 17:51:49;;;;;;;;;;;-0.70;99.90;;;;;;4172265;28;19970;-55
2022/02/04 17:53:56;;;;;;;;;;;-0.70;99.90;;;;;;4172636;28;20483;-53
2022/02/04 17:56:04;;;;;;;;;;;-0.70;99.90;;;;;;4175876;28;20380;-59
2022/02/04 17:58:28;;;;;;;;;;;-0.70;99.90;;;;;;4176626;28;20422;-55
2022/02/04 18:02:39;;;;;;;;;;;-0.70;99.90;;;;;;4160164;28;19913;-58
2022/02/04 18:07:14;;;;;;;;;;;-0.80;99.90;;;;;;4176905;28;19974;-59
2022/02/04 18:09:15;;;;;;;;;;;-0.80;99.90;;;;;;4174288;28;20516;-58
2022/02/04 18:11:16;;;;;;;;;;;-0.80;99.90;;;;;;4174234;28;19920;-54
2022/02/04 18:13:18;;;;;;;;;;;-0.80;99.90;;;;;;4158223;28;19920;-59
2022/02/04 18:15:19;;;;;;;;;;;-0.80;99.90;;;;;;4160095;28;19913;-54
2022/02/04 18:17:20;;;;;;;;;;;-0.80;99.90;;;;;;4158458;28;19968;-58
2022/02/04 18:19:21;;;;;;;;;;;-0.80;99.90;;;;;;4160106;28;20288;-60
2022/02/04 18:21:22;;;;;;;;;;;-0.80;99.90;;;;;;4158306;28;19913;-57
2022/02/04 18:23:23;;;;;;;;;;;-0.90;99.90;;;;;;4159600;28;19912;-55
2022/02/04 18:25:24;;;;;;;;;;;-0.90;99.90;;;;;;4158849;28;20051;-59